KPWT

Bremerton National Airport

Bremerton, Washington, USA
KPWT 181728Z 1818/1918 20015G23KT P6SM SCT010 BKN100 TEMPO 1818/1822 -SHRA BKN010 OVC050 FM182200 19018G28KT P6SM SCT020 BKN090 TEMPO 1822/1902 -SHRA BKN020 OVC050 FM190400 20010KT P6SM FEW020 BKN200
Issued Valid From Valid To
Dec-18 @ 17:28 UTC
(6 hours ago)
Dec-18 @ 18:00 UTC
(5 hours ago)
Dec-19 @ 18:00 UTC
(in 19 hours)
Expired Click to View Dec-18 @ 18:00 to Dec-18 @ 22:00
KPWT 181728Z 1818/1918 20015G23KT P6SM SCT010 BKN100
Wind Visibility Clouds
200° at 15 knots
 Gusting to 23 knots
Greater than 6 miles
  • Scattered at 1,000' AGL
  • Broken at 10,000' AGL
Expired Click to View Dec-18 @ 18:00 to Dec-18 @ 22:00
TEMPO 1818/1822 -SHRA BKN010 OVC050
Clouds Conditions
  • Broken at 1,000' AGL
  • Overcast at 5,000' AGL
  • Light Rain
Temporary Dec-18 @ 22:00 to Dec-19 @ 02:00
TEMPO 1822/1902 -SHRA BKN020 OVC050
Clouds Conditions
  • Broken at 2,000' AGL
  • Overcast at 5,000' AGL
  • Light Rain
From Dec-18 @ 22:00 to Dec-19 @ 04:00
FM182200 19018G28KT P6SM SCT020 BKN090
Wind Visibility Clouds
190° at 18 knots
 Gusting to 28 knots
Greater than 6 miles
  • Scattered at 2,000' AGL
  • Broken at 9,000' AGL
From Dec-19 @ 04:00 to Dec-19 @ 18:00
FM190400 20010KT P6SM FEW020 BKN200
Wind Visibility Clouds
200° at 10 knots Greater than 6 miles
  • Few at 2,000' AGL
  • Broken at 20,000' AGL
KPWT 181728Z 1818/1918 20015G23KT P6SM SCT010 BKN100 TEMPO 1818/1822 -SHRA BKN010 OVC050 FM182200 19018G28KT P6SM SCT020 BKN090 TEMPO 1822/1902 -SHRA BKN020 OVC050 FM190400 20010KT P6SM FEW020 BKN200
Issued Dec-18 @ 17:28 UTC
(6 hours ago)
Valid From Dec-18 @ 18:00 UTC
(5 hours ago)
Valid To Dec-19 @ 18:00 UTC
(in 19 hours)
Dec-18 @ 18:00 - Dec-18 @ 22:00
Wind Visibility
200° at 15 knots
 Gusting to 23 knots
Greater than 6 miles
Clouds
  • Scattered at 1,000' AGL
  • Broken at 10,000' AGL
Dec-18 @ 18:00 - Dec-18 @ 22:00
Clouds
  • Broken at 1,000' AGL
  • Overcast at 5,000' AGL
Conditions
  • Light Rain
Temporary Dec-18 @ 22:00 - Dec-19 @ 02:00
Clouds
  • Broken at 2,000' AGL
  • Overcast at 5,000' AGL
Conditions
  • Light Rain
From Dec-18 @ 22:00 - Dec-19 @ 04:00
Wind Visibility
190° at 18 knots
 Gusting to 28 knots
Greater than 6 miles
Clouds
  • Scattered at 2,000' AGL
  • Broken at 9,000' AGL
From Dec-19 @ 04:00 - Dec-19 @ 18:00
Wind Visibility
200° at 10 knots Greater than 6 miles
Clouds
  • Few at 2,000' AGL
  • Broken at 20,000' AGL